sensor_id;sensor_type;location;lat;lon;timestamp;P1;durP1;ratioP1;P2;durP2;ratioP2
8887;SDS011;4480;52.370;9.748;2023-08-07T00:00:43;9.30;;;6.87;;
8887;SDS011;4480;52.370;9.748;2023-08-07T00:03:10;9.73;;;7.40;;
8887;SDS011;4480;52.370;9.748;2023-08-07T00:05:44;7.83;;;6.93;;
8887;SDS011;4480;52.370;9.748;2023-08-07T00:08:11;9.37;;;6.73;;
8887;SDS011;4480;52.370;9.748;2023-08-07T00:10:39;6.40;;;5.70;;
8887;SDS011;4480;52.370;9.748;2023-08-07T00:13:06;7.47;;;6.77;;
8887;SDS011;4480;52.370;9.748;2023-08-07T00:15:32;8.23;;;7.53;;
8887;SDS011;4480;52.370;9.748;2023-08-07T00:17:59;8.77;;;7.60;;
8887;SDS011;4480;52.370;9.748;2023-08-07T00:20:26;8.20;;;7.10;;
8887;SDS011;4480;52.370;9.748;2023-08-07T00:22:53;8.73;;;7.83;;
8887;SDS011;4480;52.370;9.748;2023-08-07T00:25:20;8.60;;;6.57;;
8887;SDS011;4480;52.370;9.748;2023-08-07T00:27:48;8.63;;;7.37;;
8887;SDS011;4480;52.370;9.748;2023-08-07T00:30:15;8.37;;;7.57;;
8887;SDS011;4480;52.370;9.748;2023-08-07T00:32:41;10.47;;;8.20;;
8887;SDS011;4480;52.370;9.748;2023-08-07T00:35:08;10.40;;;7.00;;
8887;SDS011;4480;52.370;9.748;2023-08-07T00:37:36;8.57;;;7.77;;
8887;SDS011;4480;52.370;9.748;2023-08-07T00:40:03;8.73;;;7.40;;
8887;SDS011;4480;52.370;9.748;2023-08-07T00:42:31;7.37;;;6.50;;
8887;SDS011;4480;52.370;9.748;2023-08-07T00:44:59;9.13;;;8.20;;
8887;SDS011;4480;52.370;9.748;2023-08-07T00:47:26;11.17;;;9.07;;
8887;SDS011;4480;52.370;9.748;2023-08-07T00:49:53;10.60;;;9.50;;
8887;SDS011;4480;52.370;9.748;2023-08-07T00:52:20;10.20;;;8.73;;
8887;SDS011;4480;52.370;9.748;2023-08-07T00:54:46;9.63;;;8.63;;
8887;SDS011;4480;52.370;9.748;2023-08-07T00:57:13;10.07;;;9.00;;
8887;SDS011;4480;52.370;9.748;2023-08-07T00:59:41;15.43;;;10.73;;
8887;SDS011;4480;52.370;9.748;2023-08-07T01:02:11;10.97;;;9.70;;
8887;SDS011;4480;52.370;9.748;2023-08-07T01:04:38;14.60;;;10.50;;
8887;SDS011;4480;52.370;9.748;2023-08-07T01:07:06;15.47;;;11.83;;
8887;SDS011;4480;52.370;9.748;2023-08-07T01:09:33;11.20;;;10.00;;
8887;SDS011;4480;52.370;9.748;2023-08-07T01:12:02;16.33;;;11.00;;
8887;SDS011;4480;52.370;9.748;2023-08-07T01:14:40;12.90;;;11.50;;
8887;SDS011;4480;52.370;9.748;2023-08-07T01:17:17;13.20;;;11.47;;
8887;SDS011;4480;52.370;9.748;2023-08-07T01:19:47;15.07;;;10.80;;
8887;SDS011;4480;52.370;9.748;2023-08-07T01:22:19;15.63;;;11.80;;
8887;SDS011;4480;52.370;9.748;2023-08-07T01:24:46;13.53;;;11.70;;
8887;SDS011;4480;52.370;9.748;2023-08-07T01:27:17;13.30;;;11.40;;
8887;SDS011;4480;52.370;9.748;2023-08-07T01:29:54;13.70;;;11.50;;
8887;SDS011;4480;52.370;9.748;2023-08-07T01:32:28;15.37;;;12.17;;
8887;SDS011;4480;52.370;9.748;2023-08-07T01:35:00;15.20;;;12.43;;
8887;SDS011;4480;52.370;9.748;2023-08-07T01:37:29;14.63;;;11.73;;
8887;SDS011;4480;52.370;9.748;2023-08-07T01:39:59;15.00;;;12.63;;
8887;SDS011;4480;52.370;9.748;2023-08-07T01:42:29;16.47;;;12.57;;
8887;SDS011;4480;52.370;9.748;2023-08-07T01:44:57;14.77;;;13.03;;
8887;SDS011;4480;52.370;9.748;2023-08-07T01:47:24;18.33;;;13.43;;
8887;SDS011;4480;52.370;9.748;2023-08-07T01:49:50;14.70;;;12.80;;
8887;SDS011;4480;52.370;9.748;2023-08-07T01:52:17;14.93;;;12.70;;
8887;SDS011;4480;52.370;9.748;2023-08-07T01:54:46;16.17;;;13.93;;
8887;SDS011;4480;52.370;9.748;2023-08-07T01:57:13;16.83;;;13.30;;
8887;SDS011;4480;52.370;9.748;2023-08-07T01:59:40;14.73;;;12.63;;
8887;SDS011;4480;52.370;9.748;2023-08-07T02:02:07;17.00;;;13.57;;
8887;SDS011;4480;52.370;9.748;2023-08-07T02:04:34;11.60;;;10.30;;
8887;SDS011;4480;52.370;9.748;2023-08-07T02:07:01;13.13;;;11.27;;
8887;SDS011;4480;52.370;9.748;2023-08-07T02:09:28;17.17;;;11.60;;
8887;SDS011;4480;52.370;9.748;2023-08-07T02:11:56;14.33;;;10.23;;
8887;SDS011;4480;52.370;9.748;2023-08-07T02:14:22;12.63;;;9.40;;
8887;SDS011;4480;52.370;9.748;2023-08-07T02:16:49;13.13;;;9.83;;
8887;SDS011;4480;52.370;9.748;2023-08-07T02:19:16;12.60;;;8.60;;
8887;SDS011;4480;52.370;9.748;2023-08-07T02:21:43;11.10;;;8.47;;
8887;SDS011;4480;52.370;9.748;2023-08-07T02:24:09;12.47;;;9.83;;
8887;SDS011;4480;52.370;9.748;2023-08-07T02:26:36;13.07;;;9.37;;
8887;SDS011;4480;52.370;9.748;2023-08-07T02:29:04;12.03;;;8.93;;
8887;SDS011;4480;52.370;9.748;2023-08-07T02:31:32;11.63;;;9.30;;
8887;SDS011;4480;52.370;9.748;2023-08-07T02:33:59;12.10;;;9.17;;
8887;SDS011;4480;52.370;9.748;2023-08-07T02:36:25;12.97;;;9.57;;
8887;SDS011;4480;52.370;9.748;2023-08-07T02:38:52;9.40;;;7.50;;
8887;SDS011;4480;52.370;9.748;2023-08-07T02:41:19;11.37;;;9.50;;
8887;SDS011;4480;52.370;9.748;2023-08-07T02:43:46;8.97;;;7.70;;
8887;SDS011;4480;52.370;9.748;2023-08-07T02:46:14;12.27;;;8.77;;
8887;SDS011;4480;52.370;9.748;2023-08-07T02:48:43;11.87;;;8.23;;
8887;SDS011;4480;52.370;9.748;2023-08-07T02:51:10;10.73;;;8.30;;
8887;SDS011;4480;52.370;9.748;2023-08-07T02:53:37;14.23;;;7.70;;
8887;SDS011;4480;52.370;9.748;2023-08-07T02:56:03;17.60;;;9.47;;
8887;SDS011;4480;52.370;9.748;2023-08-07T02:58:30;9.27;;;8.27;;
8887;SDS011;4480;52.370;9.748;2023-08-07T03:01:02;13.97;;;8.40;;
8887;SDS011;4480;52.370;9.748;2023-08-07T03:03:31;12.27;;;8.90;;
8887;SDS011;4480;52.370;9.748;2023-08-07T03:05:57;10.90;;;8.50;;
8887;SDS011;4480;52.370;9.748;2023-08-07T03:08:24;13.10;;;8.77;;
8887;SDS011;4480;52.370;9.748;2023-08-07T03:10:51;13.90;;;9.77;;
8887;SDS011;4480;52.370;9.748;2023-08-07T03:13:18;9.87;;;8.67;;
8887;SDS011;4480;52.370;9.748;2023-08-07T03:15:45;12.20;;;8.90;;
8887;SDS011;4480;52.370;9.748;2023-08-07T03:18:14;10.97;;;8.57;;
8887;SDS011;4480;52.370;9.748;2023-08-07T03:20:42;9.43;;;8.53;;
8887;SDS011;4480;52.370;9.748;2023-08-07T03:23:09;11.40;;;8.20;;
8887;SDS011;4480;52.370;9.748;2023-08-07T03:25:36;12.07;;;8.57;;
8887;SDS011;4480;52.370;9.748;2023-08-07T03:28:03;12.37;;;9.70;;
8887;SDS011;4480;52.370;9.748;2023-08-07T03:30:30;11.07;;;9.13;;
8887;SDS011;4480;52.370;9.748;2023-08-07T03:32:56;13.40;;;8.80;;
8887;SDS011;4480;52.370;9.748;2023-08-07T03:35:23;11.20;;;8.57;;
8887;SDS011;4480;52.370;9.748;2023-08-07T03:37:51;11.03;;;8.07;;
8887;SDS011;4480;52.370;9.748;2023-08-07T03:40:18;13.27;;;8.50;;
8887;SDS011;4480;52.370;9.748;2023-08-07T03:42:45;13.33;;;9.07;;
8887;SDS011;4480;52.370;9.748;2023-08-07T03:45:11;10.93;;;8.60;;
8887;SDS011;4480;52.370;9.748;2023-08-07T03:47:39;11.87;;;8.80;;
8887;SDS011;4480;52.370;9.748;2023-08-07T03:50:06;11.80;;;8.00;;
8887;SDS011;4480;52.370;9.748;2023-08-07T03:52:33;14.70;;;9.03;;
8887;SDS011;4480;52.370;9.748;2023-08-07T03:55:02;14.73;;;8.30;;
8887;SDS011;4480;52.370;9.748;2023-08-07T03:57:28;13.03;;;8.57;;
8887;SDS011;4480;52.370;9.748;2023-08-07T03:59:55;10.10;;;8.87;;
8887;SDS011;4480;52.370;9.748;2023-08-07T04:02:23;11.70;;;9.17;;
8887;SDS011;4480;52.370;9.748;2023-08-07T04:04:50;10.40;;;8.57;;
8887;SDS011;4480;52.370;9.748;2023-08-07T04:07:17;11.90;;;8.60;;
8887;SDS011;4480;52.370;9.748;2023-08-07T04:12:01;10.30;;;9.10;;
8887;SDS011;4480;52.370;9.748;2023-08-07T04:14:28;14.00;;;8.97;;
8887;SDS011;4480;52.370;9.748;2023-08-07T04:16:55;13.40;;;10.20;;
8887;SDS011;4480;52.370;9.748;2023-08-07T04:19:22;11.40;;;9.23;;
8887;SDS011;4480;52.370;9.748;2023-08-07T04:21:49;11.70;;;9.20;;
8887;SDS011;4480;52.370;9.748;2023-08-07T04:24:16;11.97;;;8.70;;
8887;SDS011;4480;52.370;9.748;2023-08-07T04:26:42;10.40;;;8.50;;
8887;SDS011;4480;52.370;9.748;2023-08-07T04:29:11;10.87;;;8.27;;
8887;SDS011;4480;52.370;9.748;2023-08-07T04:31:37;16.27;;;9.67;;
8887;SDS011;4480;52.370;9.748;2023-08-07T04:34:04;14.40;;;9.10;;
8887;SDS011;4480;52.370;9.748;2023-08-07T04:36:31;12.30;;;9.63;;
8887;SDS011;4480;52.370;9.748;2023-08-07T04:38:58;11.57;;;9.60;;
8887;SDS011;4480;52.370;9.748;2023-08-07T04:41:25;14.53;;;8.57;;
8887;SDS011;4480;52.370;9.748;2023-08-07T04:43:51;9.90;;;8.90;;
8887;SDS011;4480;52.370;9.748;2023-08-07T04:46:20;12.10;;;9.67;;
8887;SDS011;4480;52.370;9.748;2023-08-07T04:48:46;16.23;;;10.17;;
8887;SDS011;4480;52.370;9.748;2023-08-07T04:51:13;11.23;;;8.57;;
8887;SDS011;4480;52.370;9.748;2023-08-07T04:53:40;11.40;;;9.30;;
8887;SDS011;4480;52.370;9.748;2023-08-07T04:56:07;9.80;;;8.30;;
8887;SDS011;4480;52.370;9.748;2023-08-07T04:58:34;11.70;;;9.00;;
8887;SDS011;4480;52.370;9.748;2023-08-07T05:01:00;11.50;;;8.40;;
8887;SDS011;4480;52.370;9.748;2023-08-07T05:03:29;11.70;;;9.63;;
8887;SDS011;4480;52.370;9.748;2023-08-07T05:06:00;12.47;;;8.70;;
8887;SDS011;4480;52.370;9.748;2023-08-07T05:08:27;11.90;;;8.57;;
8887;SDS011;4480;52.370;9.748;2023-08-07T05:10:53;12.60;;;8.73;;
8887;SDS011;4480;52.370;9.748;2023-08-07T05:13:20;9.03;;;7.87;;
8887;SDS011;4480;52.370;9.748;2023-08-07T05:15:47;9.40;;;7.60;;
8887;SDS011;4480;52.370;9.748;2023-08-07T05:18:14;10.47;;;7.97;;
8887;SDS011;4480;52.370;9.748;2023-08-07T05:20:43;10.53;;;7.20;;
8887;SDS011;4480;52.370;9.748;2023-08-07T05:23:10;7.50;;;6.80;;
8887;SDS011;4480;52.370;9.748;2023-08-07T05:25:36;8.00;;;6.60;;
8887;SDS011;4480;52.370;9.748;2023-08-07T05:28:04;12.30;;;7.43;;
8887;SDS011;4480;52.370;9.748;2023-08-07T05:30:31;6.93;;;6.17;;
8887;SDS011;4480;52.370;9.748;2023-08-07T05:32:58;7.60;;;6.80;;
8887;SDS011;4480;52.370;9.748;2023-08-07T05:35:25;8.50;;;6.10;;
8887;SDS011;4480;52.370;9.748;2023-08-07T05:37:53;7.40;;;6.70;;
8887;SDS011;4480;52.370;9.748;2023-08-07T05:40:20;6.63;;;5.50;;
8887;SDS011;4480;52.370;9.748;2023-08-07T05:42:47;7.70;;;6.70;;
8887;SDS011;4480;52.370;9.748;2023-08-07T05:45:13;11.90;;;6.37;;
8887;SDS011;4480;52.370;9.748;2023-08-07T05:47:40;6.27;;;5.10;;
8887;SDS011;4480;52.370;9.748;2023-08-07T05:50:07;6.80;;;4.70;;
8887;SDS011;4480;52.370;9.748;2023-08-07T05:52:35;6.13;;;5.50;;
8887;SDS011;4480;52.370;9.748;2023-08-07T05:55:03;5.67;;;5.07;;
8887;SDS011;4480;52.370;9.748;2023-08-07T05:57:31;5.33;;;4.67;;
8887;SDS011;4480;52.370;9.748;2023-08-07T05:59:57;6.00;;;4.87;;
8887;SDS011;4480;52.370;9.748;2023-08-07T06:02:24;5.70;;;5.00;;
8887;SDS011;4480;52.370;9.748;2023-08-07T06:04:51;5.73;;;4.80;;
8887;SDS011;4480;52.370;9.748;2023-08-07T06:07:19;5.97;;;4.73;;
8887;SDS011;4480;52.370;9.748;2023-08-07T06:09:46;5.67;;;4.70;;
8887;SDS011;4480;52.370;9.748;2023-08-07T06:12:14;6.93;;;4.30;;
8887;SDS011;4480;52.370;9.748;2023-08-07T06:14:41;6.80;;;4.43;;
8887;SDS011;4480;52.370;9.748;2023-08-07T06:17:08;5.70;;;4.53;;
8887;SDS011;4480;52.370;9.748;2023-08-07T06:19:34;4.73;;;4.23;;
8887;SDS011;4480;52.370;9.748;2023-08-07T06:22:00;4.63;;;4.23;;
8887;SDS011;4480;52.370;9.748;2023-08-07T06:24:27;5.33;;;3.50;;
8887;SDS011;4480;52.370;9.748;2023-08-07T06:26:54;5.63;;;4.07;;
8887;SDS011;4480;52.370;9.748;2023-08-07T06:29:22;4.70;;;3.73;;
8887;SDS011;4480;52.370;9.748;2023-08-07T06:31:49;5.13;;;3.60;;
8887;SDS011;4480;52.370;9.748;2023-08-07T06:34:16;6.40;;;4.40;;
8887;SDS011;4480;52.370;9.748;2023-08-07T06:36:42;5.13;;;4.20;;
8887;SDS011;4480;52.370;9.748;2023-08-07T06:39:09;4.43;;;3.80;;
8887;SDS011;4480;52.370;9.748;2023-08-07T06:41:37;4.37;;;3.77;;
8887;SDS011;4480;52.370;9.748;2023-08-07T06:44:04;6.93;;;3.90;;
8887;SDS011;4480;52.370;9.748;2023-08-07T06:46:32;7.00;;;3.80;;
8887;SDS011;4480;52.370;9.748;2023-08-07T06:48:59;3.90;;;3.50;;
8887;SDS011;4480;52.370;9.748;2023-08-07T06:51:26;7.73;;;3.67;;
8887;SDS011;4480;52.370;9.748;2023-08-07T06:53:52;13.00;;;4.93;;
8887;SDS011;4480;52.370;9.748;2023-08-07T06:56:19;5.87;;;3.50;;
8887;SDS011;4480;52.370;9.748;2023-08-07T06:58:46;4.53;;;4.03;;
8887;SDS011;4480;52.370;9.748;2023-08-07T07:01:13;8.57;;;3.13;;
8887;SDS011;4480;52.370;9.748;2023-08-07T07:03:41;3.57;;;3.27;;
8887;SDS011;4480;52.370;9.748;2023-08-07T07:06:10;4.10;;;3.63;;
8887;SDS011;4480;52.370;9.748;2023-08-07T07:08:37;4.03;;;3.40;;
8887;SDS011;4480;52.370;9.748;2023-08-07T07:11:04;4.80;;;3.67;;
8887;SDS011;4480;52.370;9.748;2023-08-07T07:13:30;4.40;;;3.17;;
8887;SDS011;4480;52.370;9.748;2023-08-07T07:15:57;4.03;;;3.63;;
8887;SDS011;4480;52.370;9.748;2023-08-07T07:18:24;6.00;;;3.50;;
8887;SDS011;4480;52.370;9.748;2023-08-07T07:21:02;6.93;;;4.10;;
8887;SDS011;4480;52.370;9.748;2023-08-07T07:23:28;4.33;;;3.73;;
8887;SDS011;4480;52.370;9.748;2023-08-07T07:25:55;7.73;;;4.70;;
8887;SDS011;4480;52.370;9.748;2023-08-07T07:28:23;4.10;;;3.67;;
8887;SDS011;4480;52.370;9.748;2023-08-07T07:30:49;4.70;;;3.30;;
8887;SDS011;4480;52.370;9.748;2023-08-07T07:33:17;4.23;;;3.23;;
8887;SDS011;4480;52.370;9.748;2023-08-07T07:35:43;4.03;;;3.67;;
8887;SDS011;4480;52.370;9.748;2023-08-07T07:38:12;3.03;;;2.73;;
8887;SDS011;4480;52.370;9.748;2023-08-07T07:40:38;5.70;;;3.47;;
8887;SDS011;4480;52.370;9.748;2023-08-07T07:43:05;4.00;;;3.33;;
8887;SDS011;4480;52.370;9.748;2023-08-07T07:45:32;4.57;;;2.93;;
8887;SDS011;4480;52.370;9.748;2023-08-07T07:48:00;3.57;;;2.70;;
8887;SDS011;4480;52.370;9.748;2023-08-07T07:50:27;3.90;;;2.77;;
8887;SDS011;4480;52.370;9.748;2023-08-07T07:52:54;3.73;;;2.70;;
8887;SDS011;4480;52.370;9.748;2023-08-07T07:55:22;4.60;;;2.93;;
8887;SDS011;4480;52.370;9.748;2023-08-07T07:57:50;5.13;;;2.80;;
8887;SDS011;4480;52.370;9.748;2023-08-07T08:00:17;5.60;;;2.87;;
8887;SDS011;4480;52.370;9.748;2023-08-07T08:02:45;3.07;;;2.73;;
8887;SDS011;4480;52.370;9.748;2023-08-07T08:05:12;2.50;;;2.23;;
8887;SDS011;4480;52.370;9.748;2023-08-07T08:07:42;3.47;;;2.33;;
8887;SDS011;4480;52.370;9.748;2023-08-07T08:10:09;3.57;;;2.60;;
8887;SDS011;4480;52.370;9.748;2023-08-07T08:12:38;2.47;;;2.00;;
8887;SDS011;4480;52.370;9.748;2023-08-07T08:15:05;3.70;;;2.20;;
8887;SDS011;4480;52.370;9.748;2023-08-07T08:17:33;4.90;;;2.20;;
8887;SDS011;4480;52.370;9.748;2023-08-07T08:20:00;4.77;;;2.30;;
8887;SDS011;4480;52.370;9.748;2023-08-07T08:22:26;4.80;;;2.60;;
8887;SDS011;4480;52.370;9.748;2023-08-07T08:24:54;3.50;;;2.50;;
8887;SDS011;4480;52.370;9.748;2023-08-07T08:27:21;3.73;;;2.13;;
8887;SDS011;4480;52.370;9.748;2023-08-07T08:29:49;5.27;;;2.10;;
8887;SDS011;4480;52.370;9.748;2023-08-07T08:32:16;4.00;;;1.93;;
8887;SDS011;4480;52.370;9.748;2023-08-07T08:34:43;8.10;;;2.10;;
8887;SDS011;4480;52.370;9.748;2023-08-07T08:37:10;2.27;;;2.00;;
8887;SDS011;4480;52.370;9.748;2023-08-07T08:39:37;3.00;;;2.33;;
8887;SDS011;4480;52.370;9.748;2023-08-07T08:42:04;6.13;;;2.13;;
8887;SDS011;4480;52.370;9.748;2023-08-07T08:44:31;5.60;;;2.23;;
8887;SDS011;4480;52.370;9.748;2023-08-07T08:47:04;2.33;;;1.83;;
8887;SDS011;4480;52.370;9.748;2023-08-07T08:49:33;3.10;;;2.10;;
8887;SDS011;4480;52.370;9.748;2023-08-07T08:52:03;3.93;;;1.90;;
8887;SDS011;4480;52.370;9.748;2023-08-07T08:54:31;2.47;;;2.13;;
8887;SDS011;4480;52.370;9.748;2023-08-07T08:56:59;2.30;;;1.53;;
8887;SDS011;4480;52.370;9.748;2023-08-07T08:59:26;5.13;;;1.83;;
8887;SDS011;4480;52.370;9.748;2023-08-07T09:01:53;3.30;;;2.10;;
8887;SDS011;4480;52.370;9.748;2023-08-07T09:04:22;12.37;;;2.80;;
8887;SDS011;4480;52.370;9.748;2023-08-07T09:06:48;9.80;;;2.50;;
8887;SDS011;4480;52.370;9.748;2023-08-07T09:09:16;3.53;;;2.33;;
8887;SDS011;4480;52.370;9.748;2023-08-07T09:11:46;4.80;;;2.70;;
8887;SDS011;4480;52.370;9.748;2023-08-07T09:14:15;3.63;;;2.10;;
8887;SDS011;4480;52.370;9.748;2023-08-07T09:16:43;4.43;;;2.83;;
8887;SDS011;4480;52.370;9.748;2023-08-07T09:19:11;4.87;;;3.00;;
8887;SDS011;4480;52.370;9.748;2023-08-07T09:21:40;4.20;;;2.70;;
8887;SDS011;4480;52.370;9.748;2023-08-07T09:24:07;6.73;;;2.60;;
8887;SDS011;4480;52.370;9.748;2023-08-07T09:26:34;4.03;;;2.20;;
8887;SDS011;4480;52.370;9.748;2023-08-07T09:29:01;2.73;;;2.13;;
8887;SDS011;4480;52.370;9.748;2023-08-07T09:31:29;6.83;;;2.30;;
8887;SDS011;4480;52.370;9.748;2023-08-07T09:34:00;7.67;;;3.10;;
8887;SDS011;4480;52.370;9.748;2023-08-07T09:36:29;4.70;;;2.93;;
8887;SDS011;4480;52.370;9.748;2023-08-07T09:38:58;6.97;;;2.93;;
8887;SDS011;4480;52.370;9.748;2023-08-07T09:41:26;3.17;;;2.50;;
8887;SDS011;4480;52.370;9.748;2023-08-07T09:43:55;5.13;;;2.90;;
8887;SDS011;4480;52.370;9.748;2023-08-07T09:46:22;5.87;;;2.40;;
8887;SDS011;4480;52.370;9.748;2023-08-07T09:48:49;9.27;;;2.17;;
8887;SDS011;4480;52.370;9.748;2023-08-07T09:51:15;5.97;;;2.10;;
8887;SDS011;4480;52.370;9.748;2023-08-07T09:53:42;7.40;;;2.67;;
8887;SDS011;4480;52.370;9.748;2023-08-07T09:56:11;5.03;;;2.30;;
8887;SDS011;4480;52.370;9.748;2023-08-07T09:58:39;5.40;;;2.57;;
8887;SDS011;4480;52.370;9.748;2023-08-07T10:01:12;5.23;;;2.43;;
8887;SDS011;4480;52.370;9.748;2023-08-07T10:03:43;3.03;;;2.10;;
8887;SDS011;4480;52.370;9.748;2023-08-07T10:06:09;4.37;;;2.13;;
8887;SDS011;4480;52.370;9.748;2023-08-07T10:08:37;7.83;;;2.40;;
8887;SDS011;4480;52.370;9.748;2023-08-07T10:11:05;5.10;;;2.83;;
8887;SDS011;4480;52.370;9.748;2023-08-07T10:13:35;5.57;;;2.67;;
8887;SDS011;4480;52.370;9.748;2023-08-07T10:16:03;6.23;;;2.73;;
8887;SDS011;4480;52.370;9.748;2023-08-07T10:18:30;4.60;;;2.73;;
8887;SDS011;4480;52.370;9.748;2023-08-07T10:23:24;5.50;;;2.50;;
8887;SDS011;4480;52.370;9.748;2023-08-07T10:25:51;4.97;;;2.50;;
8887;SDS011;4480;52.370;9.748;2023-08-07T10:28:19;5.67;;;3.13;;
8887;SDS011;4480;52.370;9.748;2023-08-07T10:30:50;6.13;;;2.10;;
8887;SDS011;4480;52.370;9.748;2023-08-07T10:33:18;3.70;;;2.10;;
8887;SDS011;4480;52.370;9.748;2023-08-07T10:35:46;6.90;;;2.60;;
8887;SDS011;4480;52.370;9.748;2023-08-07T10:38:14;7.00;;;1.90;;
8887;SDS011;4480;52.370;9.748;2023-08-07T10:41:00;4.50;;;1.73;;
8887;SDS011;4480;52.370;9.748;2023-08-07T10:43:28;2.87;;;1.80;;
8887;SDS011;4480;52.370;9.748;2023-08-07T10:46:01;6.23;;;2.00;;
8887;SDS011;4480;52.370;9.748;2023-08-07T10:48:30;4.90;;;2.00;;
8887;SDS011;4480;52.370;9.748;2023-08-07T10:51:04;5.20;;;2.00;;
8887;SDS011;4480;52.370;9.748;2023-08-07T10:53:32;3.50;;;2.00;;
8887;SDS011;4480;52.370;9.748;2023-08-07T10:56:01;5.37;;;2.13;;
8887;SDS011;4480;52.370;9.748;2023-08-07T10:58:29;4.80;;;2.40;;
8887;SDS011;4480;52.370;9.748;2023-08-07T11:01:21;2.53;;;1.40;;
8887;SDS011;4480;52.370;9.748;2023-08-07T11:03:54;7.63;;;1.73;;
8887;SDS011;4480;52.370;9.748;2023-08-07T11:06:22;4.83;;;1.90;;
8887;SDS011;4480;52.370;9.748;2023-08-07T11:08:51;7.40;;;1.63;;
8887;SDS011;4480;52.370;9.748;2023-08-07T11:11:18;3.77;;;1.70;;
8887;SDS011;4480;52.370;9.748;2023-08-07T11:13:45;3.23;;;1.80;;
8887;SDS011;4480;52.370;9.748;2023-08-07T11:16:12;4.90;;;1.93;;
8887;SDS011;4480;52.370;9.748;2023-08-07T11:18:41;6.47;;;2.20;;
8887;SDS011;4480;52.370;9.748;2023-08-07T11:21:09;3.37;;;1.73;;
8887;SDS011;4480;52.370;9.748;2023-08-07T11:23:36;4.37;;;2.07;;
8887;SDS011;4480;52.370;9.748;2023-08-07T11:26:03;4.73;;;1.90;;
8887;SDS011;4480;52.370;9.748;2023-08-07T11:28:30;14.40;;;2.17;;
8887;SDS011;4480;52.370;9.748;2023-08-07T11:30:58;7.60;;;2.23;;
8887;SDS011;4480;52.370;9.748;2023-08-07T11:33:25;3.90;;;2.00;;
8887;SDS011;4480;52.370;9.748;2023-08-07T11:35:54;3.20;;;1.70;;
8887;SDS011;4480;52.370;9.748;2023-08-07T11:38:31;1.97;;;1.30;;
8887;SDS011;4480;52.370;9.748;2023-08-07T11:40:59;7.87;;;2.50;;
8887;SDS011;4480;52.370;9.748;2023-08-07T11:43:27;5.83;;;2.00;;
8887;SDS011;4480;52.370;9.748;2023-08-07T11:45:55;2.10;;;1.50;;
8887;SDS011;4480;52.370;9.748;2023-08-07T11:48:23;4.60;;;2.03;;
8887;SDS011;4480;52.370;9.748;2023-08-07T11:50:51;4.23;;;2.07;;
8887;SDS011;4480;52.370;9.748;2023-08-07T11:53:20;2.00;;;1.30;;
8887;SDS011;4480;52.370;9.748;2023-08-07T11:55:47;4.80;;;1.90;;
8887;SDS011;4480;52.370;9.748;2023-08-07T11:58:18;3.33;;;1.77;;
8887;SDS011;4480;52.370;9.748;2023-08-07T12:00:45;4.33;;;1.73;;
8887;SDS011;4480;52.370;9.748;2023-08-07T12:03:26;3.70;;;1.50;;
8887;SDS011;4480;52.370;9.748;2023-08-07T12:05:54;1.77;;;1.40;;
8887;SDS011;4480;52.370;9.748;2023-08-07T12:08:24;5.87;;;2.27;;
8887;SDS011;4480;52.370;9.748;2023-08-07T12:10:51;3.63;;;1.63;;
8887;SDS011;4480;52.370;9.748;2023-08-07T12:13:20;3.80;;;1.87;;
8887;SDS011;4480;52.370;9.748;2023-08-07T12:15:50;3.07;;;1.57;;
8887;SDS011;4480;52.370;9.748;2023-08-07T12:18:18;5.20;;;2.23;;
8887;SDS011;4480;52.370;9.748;2023-08-07T12:20:45;3.50;;;2.00;;
8887;SDS011;4480;52.370;9.748;2023-08-07T12:23:13;3.60;;;1.83;;
8887;SDS011;4480;52.370;9.748;2023-08-07T12:25:42;3.90;;;2.27;;
8887;SDS011;4480;52.370;9.748;2023-08-07T12:28:10;3.80;;;2.20;;
8887;SDS011;4480;52.370;9.748;2023-08-07T12:30:37;2.83;;;2.07;;
8887;SDS011;4480;52.370;9.748;2023-08-07T12:33:04;2.97;;;2.20;;
8887;SDS011;4480;52.370;9.748;2023-08-07T12:35:32;4.27;;;1.70;;
8887;SDS011;4480;52.370;9.748;2023-08-07T12:37:59;4.93;;;1.83;;
8887;SDS011;4480;52.370;9.748;2023-08-07T12:40:27;5.90;;;1.70;;
8887;SDS011;4480;52.370;9.748;2023-08-07T12:42:56;3.73;;;1.70;;
8887;SDS011;4480;52.370;9.748;2023-08-07T12:45:24;3.53;;;1.80;;
8887;SDS011;4480;52.370;9.748;2023-08-07T12:47:51;5.20;;;1.90;;
8887;SDS011;4480;52.370;9.748;2023-08-07T12:50:17;7.20;;;2.20;;
8887;SDS011;4480;52.370;9.748;2023-08-07T12:52:44;4.80;;;1.80;;
8887;SDS011;4480;52.370;9.748;2023-08-07T12:55:11;6.40;;;2.07;;
8887;SDS011;4480;52.370;9.748;2023-08-07T12:57:39;3.80;;;1.60;;
8887;SDS011;4480;52.370;9.748;2023-08-07T13:00:09;5.57;;;2.00;;
8887;SDS011;4480;52.370;9.748;2023-08-07T13:02:39;5.90;;;2.67;;
8887;SDS011;4480;52.370;9.748;2023-08-07T13:05:06;7.30;;;2.17;;
8887;SDS011;4480;52.370;9.748;2023-08-07T13:07:34;4.73;;;1.60;;
8887;SDS011;4480;52.370;9.748;2023-08-07T13:10:01;5.80;;;1.90;;
8887;SDS011;4480;52.370;9.748;2023-08-07T13:12:28;3.20;;;1.73;;
8887;SDS011;4480;52.370;9.748;2023-08-07T13:14:59;4.10;;;1.97;;
8887;SDS011;4480;52.370;9.748;2023-08-07T13:17:27;3.87;;;1.93;;
8887;SDS011;4480;52.370;9.748;2023-08-07T13:19:53;5.13;;;2.07;;
8887;SDS011;4480;52.370;9.748;2023-08-07T13:22:21;3.27;;;1.70;;
8887;SDS011;4480;52.370;9.748;2023-08-07T13:24:47;4.53;;;1.73;;
8887;SDS011;4480;52.370;9.748;2023-08-07T13:27:14;4.10;;;2.20;;
8887;SDS011;4480;52.370;9.748;2023-08-07T13:29:41;4.40;;;2.53;;
8887;SDS011;4480;52.370;9.748;2023-08-07T13:32:08;5.97;;;2.63;;
8887;SDS011;4480;52.370;9.748;2023-08-07T13:34:36;4.50;;;2.33;;
8887;SDS011;4480;52.370;9.748;2023-08-07T13:37:03;3.67;;;1.53;;
8887;SDS011;4480;52.370;9.748;2023-08-07T13:39:31;3.30;;;1.80;;
8887;SDS011;4480;52.370;9.748;2023-08-07T13:41:57;3.17;;;2.03;;
8887;SDS011;4480;52.370;9.748;2023-08-07T13:44:25;4.43;;;2.00;;
8887;SDS011;4480;52.370;9.748;2023-08-07T13:46:51;3.67;;;2.23;;
8887;SDS011;4480;52.370;9.748;2023-08-07T13:49:18;3.73;;;2.10;;
8887;SDS011;4480;52.370;9.748;2023-08-07T13:51:47;4.10;;;1.80;;
8887;SDS011;4480;52.370;9.748;2023-08-07T13:54:15;5.60;;;2.37;;
8887;SDS011;4480;52.370;9.748;2023-08-07T13:56:42;4.40;;;1.93;;
8887;SDS011;4480;52.370;9.748;2023-08-07T13:59:09;3.43;;;2.23;;
8887;SDS011;4480;52.370;9.748;2023-08-07T14:01:35;5.57;;;2.60;;
8887;SDS011;4480;52.370;9.748;2023-08-07T14:04:02;6.33;;;2.60;;
8887;SDS011;4480;52.370;9.748;2023-08-07T14:06:29;5.80;;;2.53;;
8887;SDS011;4480;52.370;9.748;2023-08-07T14:08:58;3.83;;;1.77;;
8887;SDS011;4480;52.370;9.748;2023-08-07T14:11:24;4.87;;;2.00;;
8887;SDS011;4480;52.370;9.748;2023-08-07T14:13:55;7.07;;;2.00;;
8887;SDS011;4480;52.370;9.748;2023-08-07T14:16:22;6.30;;;2.40;;
8887;SDS011;4480;52.370;9.748;2023-08-07T14:18:49;4.10;;;1.93;;
8887;SDS011;4480;52.370;9.748;2023-08-07T14:21:16;2.80;;;1.80;;
8887;SDS011;4480;52.370;9.748;2023-08-07T14:23:43;3.50;;;1.83;;
8887;SDS011;4480;52.370;9.748;2023-08-07T14:26:12;5.73;;;2.60;;
8887;SDS011;4480;52.370;9.748;2023-08-07T14:28:39;6.07;;;2.20;;
8887;SDS011;4480;52.370;9.748;2023-08-07T14:31:06;5.20;;;2.50;;
8887;SDS011;4480;52.370;9.748;2023-08-07T14:33:33;4.07;;;1.80;;
8887;SDS011;4480;52.370;9.748;2023-08-07T14:36:00;3.63;;;1.80;;
8887;SDS011;4480;52.370;9.748;2023-08-07T14:38:27;7.23;;;1.93;;
8887;SDS011;4480;52.370;9.748;2023-08-07T14:40:54;3.80;;;1.97;;
8887;SDS011;4480;52.370;9.748;2023-08-07T14:43:22;2.90;;;1.40;;
8887;SDS011;4480;52.370;9.748;2023-08-07T14:45:49;4.77;;;1.50;;
8887;SDS011;4480;52.370;9.748;2023-08-07T14:48:17;4.20;;;2.97;;
8887;SDS011;4480;52.370;9.748;2023-08-07T14:50:44;5.00;;;2.20;;
8887;SDS011;4480;52.370;9.748;2023-08-07T14:53:11;3.57;;;2.07;;
8887;SDS011;4480;52.370;9.748;2023-08-07T14:55:38;8.40;;;2.20;;
8887;SDS011;4480;52.370;9.748;2023-08-07T14:58:04;4.13;;;1.93;;
8887;SDS011;4480;52.370;9.748;2023-08-07T15:00:32;1.97;;;1.30;;
8887;SDS011;4480;52.370;9.748;2023-08-07T15:03:01;5.90;;;1.80;;
8887;SDS011;4480;52.370;9.748;2023-08-07T15:05:28;4.63;;;1.67;;
8887;SDS011;4480;52.370;9.748;2023-08-07T15:07:55;5.10;;;2.20;;
8887;SDS011;4480;52.370;9.748;2023-08-07T15:10:21;5.40;;;1.77;;
8887;SDS011;4480;52.370;9.748;2023-08-07T15:12:48;4.50;;;1.80;;
8887;SDS011;4480;52.370;9.748;2023-08-07T15:15:15;9.93;;;2.20;;
8887;SDS011;4480;52.370;9.748;2023-08-07T15:17:43;3.23;;;1.70;;